ETNLLOWK

Guest
Details From ETNL - Laage
To LOWK - Klagenfurt Woerthersee
Flight Number -
Tags Generated
Created
Modified
Stats Distance 444 nm / 823 km
Max Altitude 0 ft / 0 m
Waypoints 4
Social Downloads 1
Likes 0
Share VATSIM

Download

Looking for another format? Having issues loading an existing format? Contact us
Advertisement - Login to hide

Notes

Generated

Route

ETNL BESNO KFT25 LOWK

ID Type Via Altitude Latitude Longitude Leg Dist Tot Dist Heading (true) Name
O ETNL APT - 0 ft / 0 m 53.91967˚ 12.26033˚ - 0 nm - -
BESNO FIX - 0 ft / 0 m 50.11214˚ 13.38865˚ 232 nm 232 nm 169° / 170° -
KFT25 FIX - 0 ft / 0 m 46.90881˚ 14.15963˚ 194 nm 427 nm 171° / 171° -
O LOWK APT - 0 ft / 0 m 46.64412˚ 14.32017˚ 17 nm 444 nm 157° / 158° -

Altitude Profile

Advertisement - Login to hide

Weather


0- 5 10 15 20 25 30 35+ Temperature / ° C

Clouds and Precipitation
Forecast for 2017-12-18 18:00 UTC. Updated an hour ago

Ground ~20,000 ft ~40,000 ft Winds

ETNL

Details ICAO ETNL (RLG)
Name Laage
Region Germany - Military
Timezone Europe/Berlin (UTC+1.0)
Stats Elevation 138 ft / 42 m (AMSL)
Location 53.918084° 12.279250°
Runways 1
Magnetic Variation 3.520° E

METAR

ETNL 181820Z 22003KT 9999 BKN066 M01/M02 Q1026 BLU BLU+ TEMPO GRN

Decode

TAF

Not found

Departure Runways

ID Width Length Bearing (true) Bearing (mag) Surface Threshold Offset Overrun Length
10 148 ft / 45 m 8,213 ft / 2,503 m 98.07° 94.55° Concrete 0 ft / 0 m 1,001 ft / 305 m
28 148 ft / 45 m 8,213 ft / 2,503 m 278.10° 274.58° Concrete 0 ft / 0 m 1,001 ft / 305 m

LOWK

Details ICAO LOWK (KLU)
Name Klagenfurt Woerthersee
Region Austria
Timezone Europe/Vienna (UTC+1.0)
Stats Elevation 1,470 ft / 448 m (AMSL)
Location 46.642851° 14.331169°
Runways 2
Magnetic Variation 3.662° E

METAR

LOWK 181820Z VRB01KT 9999 FEW045 M03/M05 Q1025 R10L/15//95 NOSIG

Decode

TAF

TAF LOWK 181715Z 1818/1918 VRB02KT 9999 FEW040 SCT080 TX01/1915Z TNM09/1906Z BECMG 1818/1822 BKN012 PROB30 TEMPO 1823/1907 0300 FZFG VV002 BECMG 1907/1910 4000 BR SCT007 BECMG 1910/1912 9999 FEW040

Decode

Destination Runways

ID Width Length Bearing (true) Bearing (mag) Surface Threshold Offset Overrun Length
10L 148 ft / 45 m 8,903 ft / 2,714 m 106.32° 102.66° Concrete 656 ft / 200 m 0 ft / 0 m
10R 89 ft / 27 m 2,329 ft / 710 m 106.42° 102.76° Grass 197 ft / 60 m 0 ft / 0 m
28L 89 ft / 27 m 2,329 ft / 710 m 286.43° 282.77° Grass 197 ft / 60 m 0 ft / 0 m
28R 148 ft / 45 m 8,903 ft / 2,714 m 286.34° 282.68° Concrete 0 ft / 0 m 0 ft / 0 m

Approach Navaids

Runway Type Ident Frequency Range Bearing (true) Bearing (mag) Slope Elevation
28R Localiser OEK 110.10 MHz 18 nm / 33 km 286.32° 282.66° - 1,470 ft / 448 m (AMSL)
28R Glidescope OEK 110.10 MHz 10 nm / 19 km 286.33° 282.67° 3.00° 1,479 ft / 451 m (AMSL)
28R DME OEK 110.10 MHz 18 nm / 33 km - - - 1,479 ft / 451 m (AMSL)